Time;durP1;ratioP1;P1;durP2;ratioP2;P2;SDS_P1;SDS_P2;PMS_P1;PMS_P2;Temp;Humidity;BMP_temperature;BMP_pressure;BME280_temperature;BME280_humidity;BME280_pressure;Samples;Min_cycle;Max_cycle;Signal;HPM_P1;HPM_P2
2021/03/04 00:00:19;;;;;;;35.95;17.73;;;10.90;64.60;;;;;;5025587;28;20108;-75
2021/03/04 00:02:46;;;;;;;38.25;17.52;;;10.80;64.80;;;;;;5018298;28;20103;-77
2021/03/04 00:05:15;;;;;;;36.30;17.13;;;10.80;64.70;;;;;;5030415;28;20417;-76
2021/03/04 00:07:42;;;;;;;38.28;15.70;;;10.80;64.50;;;;;;5028312;28;20049;-77
2021/03/04 00:10:12;;;;;;;36.65;16.42;;;10.80;64.30;;;;;;5019522;28;20049;-74
2021/03/04 00:12:39;;;;;;;32.20;16.60;;;10.80;64.20;;;;;;5021452;28;20523;-78
2021/03/04 00:15:07;;;;;;;34.00;16.77;;;10.80;64.00;;;;;;5029411;28;20073;-77
2021/03/04 00:17:44;;;;;;;38.38;17.08;;;10.80;64.70;;;;;;5024241;28;20046;-77
2021/03/04 00:20:20;;;;;;;38.08;17.60;;;10.80;65.00;;;;;;5026381;28;20044;-76
2021/03/04 00:22:47;;;;;;;37.63;17.73;;;10.80;65.10;;;;;;5015961;28;20145;-76
2021/03/04 00:25:14;;;;;;;35.22;18.40;;;10.80;65.00;;;;;;5025203;28;20045;-77
2021/03/04 00:27:41;;;;;;;36.58;17.90;;;10.70;65.20;;;;;;5029618;28;20489;-74
2021/03/04 00:30:10;;;;;;;35.95;19.00;;;10.60;66.00;;;;;;5022346;28;20054;-73
2021/03/04 00:32:37;;;;;;;39.47;19.38;;;10.50;66.30;;;;;;5019013;28;20133;-77
2021/03/04 00:35:05;;;;;;;40.63;18.17;;;10.40;66.50;;;;;;5014062;28;20140;-76
2021/03/04 00:37:32;;;;;;;36.75;18.33;;;10.40;66.30;;;;;;5014966;28;20108;-76
2021/03/04 00:39:58;;;;;;;36.28;18.05;;;10.40;66.40;;;;;;5014011;28;20077;-77
2021/03/04 00:42:25;;;;;;;38.40;18.02;;;10.40;66.40;;;;;;5019044;28;20485;-76
2021/03/04 00:44:51;;;;;;;35.00;17.80;;;10.30;66.50;;;;;;5016383;28;20042;-75
2021/03/04 00:47:18;;;;;;;34.63;17.52;;;10.30;66.40;;;;;;5013112;28;20068;-75
2021/03/04 00:49:45;;;;;;;33.88;16.73;;;10.30;66.40;;;;;;5016344;28;20092;-75
2021/03/04 00:52:11;;;;;;;37.42;16.88;;;10.30;66.50;;;;;;5012274;28;20069;-73
2021/03/04 00:54:37;;;;;;;36.65;17.40;;;10.30;66.40;;;;;;5015861;28;20053;-75
2021/03/04 00:57:04;;;;;;;36.60;17.52;;;10.40;66.10;;;;;;5015246;28;20607;-76
2021/03/04 00:59:30;;;;;;;35.33;16.85;;;10.50;65.90;;;;;;5010058;28;20049;-73
2021/03/04 01:01:56;;;;;;;34.15;16.85;;;10.50;65.70;;;;;;5008341;28;20116;-75
2021/03/04 01:04:23;;;;;;;35.65;16.60;;;10.50;65.50;;;;;;5014390;28;20064;-75
2021/03/04 01:06:49;;;;;;;32.25;17.00;;;10.50;65.60;;;;;;5012280;28;20477;-74
2021/03/04 01:09:16;;;;;;;34.47;16.73;;;10.50;66.30;;;;;;5012814;28;20057;-77
2021/03/04 01:11:42;;;;;;;33.38;17.58;;;10.50;65.70;;;;;;5011496;28;20425;-77
2021/03/04 01:14:08;;;;;;;36.25;16.67;;;10.50;65.80;;;;;;5020066;28;20046;-74
2021/03/04 01:16:35;;;;;;;40.42;17.05;;;10.50;65.70;;;;;;5015875;28;20103;-73
2021/03/04 01:19:01;;;;;;;35.28;16.17;;;10.40;66.10;;;;;;5012866;28;20049;-78
2021/03/04 01:21:27;;;;;;;37.25;17.05;;;10.40;66.20;;;;;;5020879;28;20050;-76
2021/03/04 01:23:54;;;;;;;33.70;15.68;;;10.40;66.20;;;;;;5015106;28;20084;-76
2021/03/04 01:26:20;;;;;;;36.13;16.50;;;10.50;66.20;;;;;;5016713;28;20108;-76
2021/03/04 01:28:46;;;;;;;32.67;16.95;;;10.50;66.00;;;;;;5015092;28;20162;-76
2021/03/04 01:31:12;;;;;;;34.90;17.83;;;10.50;66.10;;;;;;5018120;28;20119;-75
2021/03/04 01:33:39;;;;;;;40.42;17.55;;;10.40;66.10;;;;;;5016738;28;20413;-75
2021/03/04 01:36:06;;;;;;;33.40;17.52;;;10.40;66.10;;;;;;5014270;28;20041;-75
2021/03/04 01:38:32;;;;;;;38.55;19.15;;;10.40;65.50;;;;;;5053415;28;20123;-72
2021/03/04 01:40:58;;;;;;;41.38;18.02;;;10.40;66.30;;;;;;5018336;28;20092;-76
2021/03/04 01:43:24;;;;;;;39.75;18.42;;;10.30;66.70;;;;;;5017499;28;20077;-77
2021/03/04 01:45:51;;;;;;;39.83;19.10;;;10.10;67.30;;;;;;5016893;28;20489;-77
2021/03/04 01:48:19;;;;;;;45.88;18.60;;;10.00;67.80;;;;;;5018133;28;20497;-77
2021/03/04 01:50:47;;;;;;;37.08;18.80;;;10.00;68.10;;;;;;5017107;28;20045;-76
2021/03/04 01:53:13;;;;;;;34.92;18.17;;;10.00;68.20;;;;;;5018003;28;20081;-78
2021/03/04 01:55:40;;;;;;;43.33;18.63;;;10.00;68.10;;;;;;5047599;28;20560;-76
2021/03/04 01:58:06;;;;;;;36.88;18.52;;;10.10;68.00;;;;;;5015718;28;20064;-75
2021/03/04 02:03:56;;;;;;;40.45;18.88;;;10.00;68.30;;;;;;5018450;28;20045;-75
2021/03/04 02:06:31;;;;;;;35.58;19.13;;;9.80;69.80;;;;;;5046612;28;20053;-76
2021/03/04 02:09:02;;;;;;;38.70;19.00;;;9.90;69.70;;;;;;5018300;28;20164;-77
2021/03/04 02:11:43;;;;;;;37.65;19.73;;;9.80;70.00;;;;;;5015144;28;20065;-77
2021/03/04 02:14:23;;;;;;;35.97;19.13;;;9.80;70.00;;;;;;5022228;28;20107;-77
2021/03/04 02:17:00;;;;;;;38.00;17.70;;;9.80;70.20;;;;;;5018783;28;20172;-78
2021/03/04 02:20:01;;;;;;;35.00;18.73;;;9.70;70.30;;;;;;5013376;28;20050;-77
2021/03/04 02:22:33;;;;;;;;;;;9.70;70.60;;;;;;5016146;28;20061;-76
2021/03/04 02:25:13;;;;;;;44.13;19.52;;;9.70;70.60;;;;;;5016236;28;20028;-77
2021/03/04 02:27:41;;;;;;;;;;;9.70;70.60;;;;;;5026932;28;20505;-78
2021/03/04 02:30:09;;;;;;;46.38;18.85;;;9.70;70.40;;;;;;5014969;28;19953;-73
2021/03/04 02:32:42;;;;;;;40.10;19.98;;;9.70;70.80;;;;;;5019686;28;20119;-76
2021/03/04 02:35:31;;;;;;;38.42;19.27;;;9.70;70.90;;;;;;5017436;28;20053;-77
2021/03/04 02:38:04;;;;;;;39.90;19.02;;;9.60;70.80;;;;;;5013835;28;20100;-76
2021/03/04 02:40:32;;;;;;;40.85;18.80;;;9.60;70.60;;;;;;5010906;28;20045;-74
2021/03/04 02:43:03;;;;;;;40.33;20.00;;;9.60;70.70;;;;;;5017506;28;20050;-75
2021/03/04 02:45:30;;;;;;;38.22;18.58;;;9.60;70.70;;;;;;5016897;28;20449;-75
2021/03/04 02:47:57;;;;;;;44.33;19.45;;;9.60;71.20;;;;;;5028657;28;20128;-75
2021/03/04 02:50:25;;;;;;;38.15;19.73;;;9.50;71.20;;;;;;5014170;28;20111;-76
2021/03/04 02:52:52;;;;;;;39.90;19.70;;;9.50;71.40;;;;;;5015376;28;20049;-75
2021/03/04 02:55:20;;;;;;;37.42;19.45;;;9.50;71.70;;;;;;5023929;28;20483;-76
2021/03/04 02:57:48;;;;;;;46.00;20.20;;;9.40;71.70;;;;;;5014468;28;20045;-75
2021/03/04 03:00:18;;;;;;;40.42;19.10;;;9.40;72.10;;;;;;5013176;28;20085;-76
2021/03/04 03:02:46;;;;;;;48.35;21.15;;;9.40;72.30;;;;;;5011506;28;20045;-75
2021/03/04 03:05:14;;;;;;;39.80;20.58;;;9.30;72.50;;;;;;5015006;28;20486;-76
2021/03/04 03:07:42;;;;;;;41.20;21.33;;;9.20;72.80;;;;;;5013302;28;20082;-77
2021/03/04 03:10:11;;;;;;;39.10;20.00;;;9.20;73.30;;;;;;5011802;28;20139;-75
2021/03/04 03:12:40;;;;;;;42.75;21.05;;;9.00;73.70;;;;;;5012264;28;20470;-78
2021/03/04 03:15:08;;;;;;;46.45;20.45;;;8.90;74.20;;;;;;5017205;28;20077;-77
2021/03/04 03:17:36;;;;;;;52.13;20.77;;;8.90;74.30;;;;;;5029876;28;20108;-76
2021/03/04 03:20:08;;;;;;;39.40;19.52;;;8.90;74.50;;;;;;5015102;28;20908;-77
2021/03/04 03:22:35;;;;;;;40.20;18.95;;;8.90;74.60;;;;;;5013028;28;20099;-78
2021/03/04 03:25:06;;;;;;;38.92;18.92;;;8.80;74.90;;;;;;5017165;28;20144;-75
2021/03/04 03:27:32;;;;;;;41.05;19.90;;;8.80;74.90;;;;;;5016122;28;20167;-76
2021/03/04 03:30:00;;;;;;;40.40;18.95;;;8.80;74.80;;;;;;5012891;28;20177;-75
2021/03/04 03:32:31;;;;;;;40.33;19.48;;;8.90;74.70;;;;;;5015550;28;20046;-74
2021/03/04 03:35:00;;;;;;;37.97;19.60;;;8.90;74.70;;;;;;5012574;28;20060;-75
2021/03/04 03:37:28;;;;;;;40.25;19.80;;;8.80;74.70;;;;;;5018209;28;20048;-75
2021/03/04 03:39:57;;;;;;;43.13;18.88;;;8.90;74.70;;;;;;5014582;28;20057;-76
2021/03/04 03:42:24;;;;;;;42.25;18.85;;;8.90;74.50;;;;;;5013310;28;20504;-75
2021/03/04 03:44:52;;;;;;;36.83;19.58;;;8.80;74.40;;;;;;5016892;28;20129;-75
2021/03/04 03:47:20;;;;;;;38.97;18.25;;;8.90;74.50;;;;;;5018118;28;20050;-77
2021/03/04 03:49:49;;;;;;;39.47;18.15;;;8.80;74.50;;;;;;5025698;28;20045;-77
2021/03/04 03:52:16;;;;;;;40.28;19.70;;;8.90;74.20;;;;;;5016128;28;20485;-72
2021/03/04 03:54:42;;;;;;;40.67;18.88;;;9.00;73.80;;;;;;5025883;28;20046;-74
2021/03/04 03:57:10;;;;;;;42.63;19.30;;;9.10;73.60;;;;;;5025284;28;20402;-75
2021/03/04 03:59:37;;;;;;;39.30;18.73;;;9.10;73.40;;;;;;5025772;28;20462;-77
2021/03/04 04:02:04;;;;;;;33.20;19.17;;;9.10;73.50;;;;;;5019302;28;20049;-78
2021/03/04 04:04:30;;;;;;;41.03;18.42;;;9.10;73.60;;;;;;5027329;28;20128;-76
2021/03/04 04:06:57;;;;;;;33.92;17.63;;;9.00;73.80;;;;;;5019059;28;20402;-76
2021/03/04 04:09:24;;;;;;;33.50;18.35;;;9.00;73.90;;;;;;5034575;28;20045;-77
2021/03/04 04:11:51;;;;;;;41.55;18.42;;;9.00;74.10;;;;;;5026006;28;20200;-77
2021/03/04 04:14:17;;;;;;;35.08;18.00;;;8.90;74.20;;;;;;5050077;28;20050;-78
2021/03/04 04:16:44;;;;;;;40.92;18.30;;;8.90;74.00;;;;;;5030389;28;20141;-76
2021/03/04 04:19:10;;;;;;;35.50;16.70;;;8.90;74.00;;;;;;5017141;28;20049;-77
2021/03/04 04:21:37;;;;;;;35.30;17.92;;;9.00;74.00;;;;;;5010272;28;20137;-77
2021/03/04 04:24:04;;;;;;;35.88;17.77;;;8.90;73.90;;;;;;5021908;28;20073;-78
2021/03/04 04:26:30;;;;;;;35.90;17.92;;;8.80;73.80;;;;;;5013770;28;20072;-76
2021/03/04 04:28:57;;;;;;;34.55;16.58;;;8.70;74.30;;;;;;5014652;28;20058;-76
2021/03/04 04:31:23;;;;;;;33.65;17.58;;;8.50;75.20;;;;;;5017466;28;20069;-77
2021/03/04 04:33:50;;;;;;;35.88;17.88;;;8.60;75.00;;;;;;5020397;28;20132;-76
2021/03/04 04:36:16;;;;;;;37.13;17.30;;;8.80;74.30;;;;;;5015867;28;20054;-76
2021/03/04 04:38:42;;;;;;;31.38;17.17;;;8.80;74.10;;;;;;5025367;28;20053;-76
2021/03/04 04:41:08;;;;;;;32.63;17.38;;;8.90;73.80;;;;;;5019555;28;20049;-77
2021/03/04 04:43:35;;;;;;;38.13;17.02;;;8.90;73.80;;;;;;5018210;28;21922;-76
2021/03/04 04:46:01;;;;;;;35.25;16.50;;;8.90;73.70;;;;;;5016472;28;20359;-76
2021/03/04 04:48:28;;;;;;;32.25;16.95;;;8.90;73.40;;;;;;5047526;28;20052;-74
2021/03/04 04:51:11;;;;;;;40.38;17.08;;;8.90;73.10;;;;;;5019208;28;20584;-75
2021/03/04 04:53:38;;;;;;;40.08;16.75;;;9.00;72.90;;;;;;5012759;28;20050;-74
2021/03/04 04:56:05;;;;;;;35.80;17.33;;;8.80;72.70;;;;;;5017400;28;20077;-75
2021/03/04 04:58:31;;;;;;;35.30;16.45;;;8.70;73.10;;;;;;5012822;28;20155;-76
2021/03/04 05:00:58;;;;;;;40.25;16.33;;;8.70;72.70;;;;;;5016383;28;20468;-75
2021/03/04 05:03:25;;;;;;;29.77;15.43;;;8.70;72.10;;;;;;5016942;28;20053;-75
2021/03/04 05:05:51;;;;;;;29.33;14.68;;;8.70;71.90;;;;;;5016675;28;20096;-77
2021/03/04 05:08:17;;;;;;;34.75;15.35;;;8.60;71.70;;;;;;5022791;28;20077;-75
2021/03/04 05:10:44;;;;;;;33.67;14.43;;;8.70;71.40;;;;;;5016142;28;20100;-76
2021/03/04 05:13:10;;;;;;;30.50;14.88;;;8.70;71.10;;;;;;5032416;28;20481;-75
2021/03/04 05:15:36;;;;;;;27.42;14.20;;;8.80;70.60;;;;;;5017816;28;20132;-74
2021/03/04 05:18:03;;;;;;;27.88;13.77;;;8.80;70.20;;;;;;5015913;28;20073;-74
2021/03/04 05:20:30;;;;;;;28.92;14.55;;;8.90;69.60;;;;;;5016315;28;20076;-75
2021/03/04 05:22:57;;;;;;;32.88;13.80;;;9.00;69.00;;;;;;5033336;28;20528;-74
2021/03/04 05:25:23;;;;;;;30.27;14.27;;;9.00;68.90;;;;;;5015090;28;20433;-75
2021/03/04 05:27:50;;;;;;;27.95;14.07;;;9.00;69.10;;;;;;5016356;28;20050;-76
2021/03/04 05:30:17;;;;;;;32.15;13.73;;;9.00;68.80;;;;;;5014154;28;20069;-75
2021/03/04 05:32:43;;;;;;;28.60;14.10;;;9.00;69.00;;;;;;5017990;28;20049;-76
2021/03/04 05:35:11;;;;;;;28.15;14.00;;;9.00;68.90;;;;;;5016544;28;20046;-77
2021/03/04 05:37:37;;;;;;;27.40;13.95;;;9.10;68.90;;;;;;5017191;28;20052;-76
2021/03/04 05:40:05;;;;;;;28.13;14.63;;;9.10;68.70;;;;;;5016266;28;20469;-76
2021/03/04 05:42:32;;;;;;;31.77;13.90;;;9.10;68.60;;;;;;5016440;28;20511;-76
2021/03/04 05:44:59;;;;;;;31.80;14.25;;;9.00;68.30;;;;;;5016586;28;20045;-73
2021/03/04 05:47:27;;;;;;;26.42;13.73;;;9.00;68.40;;;;;;5017943;28;20551;-75
2021/03/04 05:50:07;;;;;;;36.38;14.02;;;8.90;68.40;;;;;;5020169;28;20049;-76
2021/03/04 05:52:35;;;;;;;28.45;13.48;;;9.00;68.60;;;;;;5019461;28;20095;-74
2021/03/04 05:55:03;;;;;;;26.13;12.63;;;9.00;68.00;;;;;;5012444;28;20141;-74
2021/03/04 05:57:30;;;;;;;29.02;12.88;;;9.00;68.10;;;;;;5044942;28;20096;-75
2021/03/04 05:59:57;;;;;;;32.47;13.65;;;9.00;68.00;;;;;;5014062;28;20460;-75
2021/03/04 06:02:24;;;;;;;29.27;13.43;;;9.00;68.60;;;;;;5025837;28;20172;-75
2021/03/04 06:04:51;;;;;;;32.08;14.27;;;9.10;67.50;;;;;;5029115;28;20072;-76
2021/03/04 06:07:18;;;;;;;35.13;14.45;;;9.00;67.80;;;;;;5023691;28;20073;-75
2021/03/04 06:09:44;;;;;;;33.13;14.55;;;9.00;67.90;;;;;;5021657;28;20128;-76
2021/03/04 06:12:11;;;;;;;27.48;13.65;;;9.00;67.90;;;;;;5026260;28;20087;-76
2021/03/04 06:14:37;;;;;;;33.03;16.00;;;9.10;67.60;;;;;;5022554;28;20045;-76
2021/03/04 06:17:18;;;;;;;34.58;14.95;;;8.90;68.00;;;;;;5019276;28;20053;-76
2021/03/04 06:19:52;;;;;;;34.80;14.10;;;8.80;68.60;;;;;;5015763;28;20050;-77
2021/03/04 06:22:30;;;;;;;29.50;14.90;;;8.80;68.90;;;;;;5011808;28;20049;-76
2021/03/04 06:24:58;;;;;;;40.00;14.98;;;8.70;69.10;;;;;;5033236;28;20081;-76
2021/03/04 06:27:28;;;;;;;29.55;13.73;;;8.70;69.30;;;;;;5018205;28;20371;-77
2021/03/04 06:29:56;;;;;;;27.77;14.68;;;8.80;68.90;;;;;;5019042;28;20044;-73
2021/03/04 06:32:23;;;;;;;29.88;14.15;;;8.90;68.60;;;;;;5015096;28;20099;-76
2021/03/04 06:35:13;;;;;;;36.30;13.57;;;9.00;68.40;;;;;;5018453;28;20489;-78
2021/03/04 06:37:42;;;;;;;34.03;14.20;;;9.10;68.40;;;;;;5015784;28;20054;-77
2021/03/04 06:40:32;;;;;;;34.10;14.80;;;9.10;67.90;;;;;;5017480;28;20048;-76
2021/03/04 06:42:59;;;;;;;31.03;14.50;;;9.20;67.80;;;;;;5020743;28;20689;-77
2021/03/04 06:45:31;;;;;;;32.05;14.63;;;9.20;68.10;;;;;;5018853;28;20085;-76
2021/03/04 06:48:24;;;;;;;29.27;14.52;;;9.10;68.30;;;;;;5016276;28;20046;-76
2021/03/04 06:50:58;;;;;;;25.25;14.07;;;9.20;68.50;;;;;;5004534;28;20054;-77
2021/03/04 06:53:29;;;;;;;26.50;13.98;;;9.20;68.40;;;;;;5005655;28;20074;-75
2021/03/04 06:56:05;;;;;;;31.20;14.57;;;9.20;68.30;;;;;;5014156;28;20061;-78
2021/03/04 06:58:32;;;;;;;35.15;14.48;;;9.20;68.40;;;;;;5005713;28;20053;-76
2021/03/04 07:01:06;;;;;;;34.55;14.50;;;9.30;68.40;;;;;;5009175;28;20045;-78
2021/03/04 07:03:42;;;;;;;39.78;14.57;;;9.30;68.30;;;;;;5008280;28;20073;-77
2021/03/04 07:06:28;;;;;;;33.70;14.85;;;9.10;68.50;;;;;;5008386;28;20061;-78
2021/03/04 07:08:55;;;;;;;35.30;14.75;;;8.80;69.70;;;;;;5005342;28;20104;-75
2021/03/04 07:11:24;;;;;;;39.15;15.68;;;8.90;69.60;;;;;;5038951;28;20523;-77
2021/03/04 07:13:51;;;;;;;33.13;15.27;;;9.00;69.40;;;;;;5007211;28;20596;-77
2021/03/04 07:16:19;;;;;;;41.13;14.15;;;8.90;69.60;;;;;;5008408;28;20709;-74
2021/03/04 07:18:53;;;;;;;34.25;14.82;;;8.80;69.80;;;;;;5006558;28;21123;-77
2021/03/04 07:21:23;;;;;;;32.10;14.88;;;9.00;69.30;;;;;;5016251;28;20461;-76
2021/03/04 07:23:49;;;;;;;31.85;15.60;;;9.20;68.60;;;;;;5011431;28;20073;-75
2021/03/04 07:26:19;;;;;;;34.88;15.13;;;9.20;68.60;;;;;;5009989;28;20073;-75
2021/03/04 07:28:46;;;;;;;35.70;15.77;;;9.30;68.40;;;;;;5014539;28;20050;-75
2021/03/04 07:31:14;;;;;;;37.80;15.73;;;9.60;68.00;;;;;;5010746;28;20053;-74
2021/03/04 07:33:47;;;;;;;33.45;16.58;;;9.50;67.20;;;;;;5021260;28;20050;-78
2021/03/04 07:36:18;;;;;;;34.55;15.50;;;9.40;67.70;;;;;;5013519;28;20045;-75
2021/03/04 07:39:04;;;;;;;38.55;15.77;;;9.60;67.50;;;;;;5009055;28;20465;-77
2021/03/04 07:41:39;;;;;;;35.58;15.98;;;9.40;67.80;;;;;;5011371;28;20065;-77
2021/03/04 07:44:07;;;;;;;33.50;16.83;;;9.40;67.90;;;;;;5012071;28;20042;-77
2021/03/04 07:46:43;;;;;;;30.63;15.05;;;9.70;67.40;;;;;;5010176;28;20383;-76
2021/03/04 07:49:10;;;;;;;33.95;15.20;;;9.50;67.10;;;;;;5012927;28;20054;-76
2021/03/04 07:51:47;;;;;;;33.70;14.90;;;9.70;66.80;;;;;;5009959;28;20076;-74
2021/03/04 07:54:15;;;;;;;31.10;14.93;;;9.60;66.40;;;;;;5013799;28;20099;-77
2021/03/04 07:56:42;;;;;;;33.15;15.20;;;9.70;66.50;;;;;;5017249;28;20049;-76
2021/03/04 07:59:15;;;;;;;35.83;13.98;;;10.00;65.10;;;;;;5011483;28;20049;-77
2021/03/04 08:01:54;;;;;;;30.95;13.20;;;11.10;62.40;;;;;;5007057;28;20125;-80
2021/03/04 08:04:22;;;;;;;25.20;12.70;;;11.30;59.90;;;;;;5013801;28;20119;-77
2021/03/04 08:06:56;;;;;;;33.33;13.27;;;11.60;59.80;;;;;;5010128;28;20084;-79
2021/03/04 08:09:36;;;;;;;26.20;12.80;;;11.60;59.10;;;;;;5010184;28;20057;-80
2021/03/04 08:12:21;;;;;;;27.27;12.60;;;12.00;58.80;;;;;;5008578;28;20046;-76
2021/03/04 08:14:56;;;;;;;27.50;12.65;;;12.90;56.40;;;;;;5013456;28;20081;-78
2021/03/04 08:17:34;;;;;;;23.88;11.30;;;12.10;56.90;;;;;;5010347;28;20401;-79
2021/03/04 08:20:09;;;;;;;28.42;11.40;;;12.20;57.20;;;;;;5007941;28;20053;-78
2021/03/04 08:22:48;;;;;;;24.67;12.80;;;12.60;56.60;;;;;;5017138;28;20099;-77
2021/03/04 08:25:21;;;;;;;23.00;11.55;;;12.50;56.80;;;;;;5013022;28;20080;-74
2021/03/04 08:27:48;;;;;;;19.58;11.00;;;12.50;56.80;;;;;;5009613;28;20366;-79
2021/03/04 08:30:14;;;;;;;25.38;12.05;;;12.30;56.60;;;;;;5016525;28;20499;-81
2021/03/04 08:32:43;;;;;;;22.70;10.93;;;13.20;55.50;;;;;;5003404;28;20505;-81
2021/03/04 08:35:20;;;;;;;23.38;11.65;;;13.10;54.80;;;;;;5018460;28;20149;-78
2021/03/04 08:38:01;;;;;;;24.02;11.48;;;12.40;56.00;;;;;;5018665;28;20096;-78
2021/03/04 08:40:29;;;;;;;21.73;11.40;;;12.70;56.40;;;;;;5050987;28;20542;-77
2021/03/04 08:42:55;;;;;;;27.63;11.73;;;13.10;55.50;;;;;;5018208;28;20053;-77
2021/03/04 08:45:30;;;;;;;25.25;10.90;;;13.80;54.10;;;;;;5019990;28;20100;-78
2021/03/04 08:47:56;;;;;;;25.65;10.57;;;13.80;53.70;;;;;;5019553;28;20108;-77
2021/03/04 08:50:40;;;;;;;21.35;10.25;;;14.90;52.50;;;;;;5020028;28;20558;-79
2021/03/04 08:53:19;;;;;;;21.15;10.38;;;15.60;50.70;;;;;;5020875;28;20108;-79
2021/03/04 08:55:58;;;;;;;18.77;10.30;;;14.80;51.20;;;;;;5017546;28;20058;-80
2021/03/04 08:58:26;;;;;;;25.88;10.32;;;14.80;51.80;;;;;;5022424;28;20173;-76
2021/03/04 09:01:02;;;;;;;21.57;10.57;;;14.10;52.40;;;;;;5017666;28;20130;-80
2021/03/04 09:03:37;;;;;;;22.33;10.38;;;14.30;52.40;;;;;;5020557;28;20307;-79
2021/03/04 09:06:12;;;;;;;20.10;9.18;;;14.00;52.60;;;;;;5020150;28;20469;-79
2021/03/04 09:08:39;;;;;;;23.02;10.27;;;13.90;52.00;;;;;;5018316;28;20053;-75
2021/03/04 09:11:08;;;;;;;23.58;10.60;;;13.00;53.90;;;;;;5019798;28;20060;-79
2021/03/04 09:13:36;;;;;;;22.42;9.85;;;13.40;54.20;;;;;;5023350;28;20050;-77
2021/03/04 09:16:05;;;;;;;24.42;9.50;;;13.10;53.70;;;;;;5015960;28;20104;-77
2021/03/04 09:18:45;;;;;;;18.30;9.98;;;13.70;54.00;;;;;;5018300;28;20420;-77
2021/03/04 09:21:15;;;;;;;19.38;9.10;;;13.20;54.00;;;;;;5020294;28;20420;-79
2021/03/04 09:23:41;;;;;;;22.20;10.07;;;13.10;54.70;;;;;;5019053;28;20610;-78
2021/03/04 09:26:08;;;;;;;24.17;9.25;;;13.20;54.40;;;;;;5019840;28;20303;-79
2021/03/04 09:28:39;;;;;;;19.05;10.32;;;13.90;54.10;;;;;;5023492;28;20115;-77
2021/03/04 09:31:13;;;;;;;24.73;10.15;;;14.70;52.60;;;;;;5016875;28;20065;-78
2021/03/04 09:33:41;;;;;;;21.55;9.52;;;14.20;52.20;;;;;;5019117;28;20072;-77
2021/03/04 09:36:09;;;;;;;22.20;10.48;;;14.20;53.40;;;;;;5017413;28;20080;-80
2021/03/04 09:38:37;;;;;;;22.30;10.07;;;13.90;53.10;;;;;;5017464;28;20062;-80
2021/03/04 09:41:12;;;;;;;27.92;10.23;;;13.50;53.80;;;;;;5021289;28;20093;-78
2021/03/04 09:43:44;;;;;;;30.58;9.90;;;13.20;54.70;;;;;;5021556;28;20053;-80
2021/03/04 09:46:38;;;;;;;17.33;9.13;;;13.80;54.20;;;;;;5020254;28;20052;-79
2021/03/04 09:49:15;;;;;;;23.52;9.75;;;14.60;53.00;;;;;;5027146;28;20122;-78
2021/03/04 09:51:47;;;;;;;20.00;9.45;;;15.10;52.40;;;;;;5022113;28;20056;-78
2021/03/04 09:54:25;;;;;;;22.23;10.13;;;15.00;51.60;;;;;;5011569;28;20119;-78
2021/03/04 09:57:01;;;;;;;24.25;9.77;;;14.00;53.20;;;;;;5021294;28;20060;-78
2021/03/04 09:59:27;;;;;;;;;;;13.70;54.40;;;;;;5021220;28;20057;-80
2021/03/04 10:01:55;;;;;;;20.30;9.48;;;13.40;54.50;;;;;;5020664;28;19928;-79
2021/03/04 10:04:26;;;;;;;17.27;9.27;;;13.60;54.70;;;;;;5023391;28;20054;-80
2021/03/04 10:06:53;;;;;;;20.80;9.88;;;13.70;54.40;;;;;;5022017;28;20081;-78
2021/03/04 10:09:29;;;;;;;24.38;9.05;;;13.70;54.60;;;;;;5022495;28;20057;-79
2021/03/04 10:12:01;;;;;;;23.55;9.48;;;13.70;54.70;;;;;;5021998;28;20419;-78
2021/03/04 10:14:29;;;;;;;21.95;9.60;;;14.00;54.50;;;;;;5023241;28;20067;-79
2021/03/04 10:16:56;;;;;;;24.30;9.75;;;14.20;54.00;;;;;;5021222;28;20143;-78
2021/03/04 10:19:23;;;;;;;22.23;10.13;;;14.30;53.90;;;;;;5027093;28;20083;-79
2021/03/04 10:21:49;;;;;;;19.27;10.20;;;14.00;53.80;;;;;;5021331;28;20057;-77
2021/03/04 10:24:16;;;;;;;29.35;10.73;;;14.20;54.40;;;;;;5038022;28;20204;-77
2021/03/04 10:26:42;;;;;;;29.80;10.60;;;14.50;54.30;;;;;;5022420;28;20080;-78
2021/03/04 10:29:34;;;;;;;23.67;10.80;;;14.60;53.50;;;;;;5025895;28;20044;-76
2021/03/04 10:32:26;;;;;;;29.02;10.32;;;15.00;53.30;;;;;;5023890;28;20044;-78
2021/03/04 10:35:17;;;;;;;21.88;9.77;;;14.60;53.40;;;;;;5020886;28;20047;-78
2021/03/04 10:37:47;;;;;;;26.23;10.88;;;14.80;53.40;;;;;;5022189;28;20471;-77
2021/03/04 10:40:15;;;;;;;21.10;10.23;;;15.40;52.10;;;;;;5035128;28;20077;-78
2021/03/04 10:42:42;;;;;;;24.40;10.63;;;15.60;51.90;;;;;;5020742;28;20052;-77
2021/03/04 10:45:11;;;;;;;23.15;10.32;;;15.90;51.00;;;;;;5024844;28;20122;-77
2021/03/04 10:47:39;;;;;;;25.43;10.37;;;16.20;50.80;;;;;;5022309;28;20149;-76
2021/03/04 10:50:07;;;;;;;26.92;10.32;;;15.60;51.20;;;;;;5030519;28;20500;-77
2021/03/04 10:52:34;;;;;;;23.50;9.50;;;16.60;50.30;;;;;;5050723;28;20515;-79
2021/03/04 10:55:00;;;;;;;22.10;9.48;;;16.80;49.00;;;;;;5036701;28;20135;-79
2021/03/04 10:57:27;;;;;;;25.63;9.05;;;16.80;49.40;;;;;;5037727;28;20113;-78
2021/03/04 10:59:53;;;;;;;24.85;10.23;;;16.70;49.50;;;;;;5035836;28;20559;-78
2021/03/04 11:02:19;;;;;;;24.42;10.63;;;16.50;49.70;;;;;;5036211;28;20157;-79
2021/03/04 11:04:46;;;;;;;24.60;9.77;;;16.40;49.70;;;;;;5036881;28;20137;-78
2021/03/04 11:07:13;;;;;;;24.30;10.02;;;16.20;49.70;;;;;;5036730;28;20138;-79
2021/03/04 11:09:39;;;;;;;30.15;10.38;;;16.80;49.20;;;;;;5034967;28;20069;-78
2021/03/04 11:12:07;;;;;;;20.63;8.63;;;17.20;48.80;;;;;;5061113;28;20107;-78
2021/03/04 11:14:33;;;;;;;18.40;8.32;;;17.20;48.50;;;;;;5035632;28;20114;-78
2021/03/04 11:17:00;;;;;;;16.27;8.38;;;17.00;48.40;;;;;;5035510;28;20083;-78
2021/03/04 11:19:26;;;;;;;19.75;8.13;;;17.10;48.60;;;;;;5035484;28;20418;-79
2021/03/04 11:21:53;;;;;;;24.65;8.48;;;17.30;48.00;;;;;;5037087;28;20119;-78
2021/03/04 11:24:19;;;;;;;20.92;8.50;;;16.80;48.50;;;;;;5035687;28;20464;-78
2021/03/04 11:26:45;;;;;;;25.67;8.15;;;16.50;49.00;;;;;;5036331;28;20048;-78
2021/03/04 11:29:12;;;;;;;18.60;7.93;;;16.50;49.10;;;;;;5038702;28;20166;-80
2021/03/04 11:31:38;;;;;;;18.48;8.02;;;16.40;49.30;;;;;;5035242;28;20059;-78
2021/03/04 11:34:06;;;;;;;17.17;7.53;;;16.40;49.40;;;;;;5037020;28;20054;-79
2021/03/04 11:36:33;;;;;;;21.67;7.78;;;16.20;49.30;;;;;;5038761;28;20140;-79
2021/03/04 11:39:01;;;;;;;22.70;7.15;;;16.30;49.20;;;;;;5036106;28;20076;-80
2021/03/04 11:41:28;;;;;;;22.25;7.85;;;16.90;49.00;;;;;;5035978;28;20069;-79
2021/03/04 11:43:55;;;;;;;14.68;7.40;;;17.10;48.20;;;;;;5036811;28;20108;-79
2021/03/04 11:46:21;;;;;;;17.05;7.47;;;17.20;47.90;;;;;;5027432;28;20146;-80
2021/03/04 11:48:50;;;;;;;19.50;7.70;;;16.80;48.30;;;;;;5037153;28;20055;-78
2021/03/04 11:51:19;;;;;;;23.48;8.60;;;16.20;49.00;;;;;;5036173;28;20048;-78
2021/03/04 11:53:45;;;;;;;20.77;8.13;;;15.90;49.80;;;;;;5035733;28;20084;-79
2021/03/04 11:56:22;;;;;;;21.58;7.45;;;16.00;49.80;;;;;;5035299;28;20143;-78
2021/03/04 11:58:50;;;;;;;19.10;7.80;;;16.50;49.50;;;;;;5036358;28;20518;-77
2021/03/04 12:01:17;;;;;;;27.13;8.45;;;16.50;49.50;;;;;;5034155;28;20841;-79
2021/03/04 12:03:44;;;;;;;21.52;8.13;;;16.30;49.00;;;;;;5033886;28;20148;-79
2021/03/04 12:06:11;;;;;;;13.15;6.80;;;16.10;49.80;;;;;;5034547;28;20140;-76
2021/03/04 12:08:37;;;;;;;14.70;7.25;;;15.80;49.80;;;;;;5034065;28;20076;-78
2021/03/04 12:11:24;;;;;;;15.45;8.20;;;15.80;50.20;;;;;;5035640;28;20801;-76
2021/03/04 12:13:50;;;;;;;20.63;7.65;;;16.10;50.30;;;;;;5032862;28;20082;-77
2021/03/04 12:16:16;;;;;;;23.10;8.18;;;16.20;49.80;;;;;;5035223;28;20098;-78
2021/03/04 12:18:43;;;;;;;19.70;7.70;;;16.60;49.80;;;;;;5036509;28;20061;-78
2021/03/04 12:21:09;;;;;;;19.88;7.65;;;16.40;49.40;;;;;;5035466;28;20060;-79
2021/03/04 12:23:35;;;;;;;19.52;8.05;;;16.30;49.90;;;;;;5035737;28;20049;-76
2021/03/04 12:26:02;;;;;;;14.52;7.53;;;16.20;49.90;;;;;;5028178;28;20065;-76
2021/03/04 12:28:41;;;;;;;18.20;7.95;;;16.10;50.00;;;;;;5034347;28;20045;-76
2021/03/04 12:31:08;;;;;;;23.42;7.88;;;15.80;50.30;;;;;;5034557;28;21320;-76
2021/03/04 12:33:34;;;;;;;16.95;7.88;;;15.90;51.00;;;;;;5032437;28;20057;-77
2021/03/04 12:36:01;;;;;;;19.98;8.20;;;15.80;50.80;;;;;;5035172;28;20155;-78
2021/03/04 12:38:28;;;;;;;26.52;7.18;;;15.60;51.50;;;;;;5033859;28;20056;-79
2021/03/04 12:40:54;;;;;;;26.00;6.95;;;15.50;51.50;;;;;;5034691;28;20511;-78
2021/03/04 12:43:21;;;;;;;19.88;7.65;;;15.50;51.90;;;;;;5032788;28;20126;-76
2021/03/04 12:45:48;;;;;;;24.92;8.05;;;15.20;51.70;;;;;;5034050;28;20095;-78
2021/03/04 12:48:15;;;;;;;15.98;7.35;;;15.20;52.10;;;;;;5033177;28;20072;-80
2021/03/04 12:50:42;;;;;;;28.67;7.90;;;15.00;52.10;;;;;;5034988;28;20182;-78